createdAt,value
2023-09-18T00:01:33.996Z,16.17
2023-09-18T00:03:33.902Z,16.1
2023-09-18T00:05:33.948Z,15.98
2023-09-18T00:09:13.707Z,16.14
2023-09-18T00:11:13.744Z,16.17
2023-09-18T00:13:13.701Z,16.1
2023-09-18T00:15:13.761Z,16.12
2023-09-18T00:17:13.731Z,16.09
2023-09-18T00:19:13.681Z,16.12
2023-09-18T00:21:13.799Z,16.02
2023-09-18T00:24:03.934Z,16.05
2023-09-18T00:26:03.975Z,16.03
2023-09-18T00:28:04.190Z,16.04
2023-09-18T00:30:03.978Z,16.07
2023-09-18T00:32:03.982Z,16.06
2023-09-18T00:34:03.936Z,16
2023-09-18T00:36:03.940Z,16.04
2023-09-18T00:38:58.921Z,16.04
2023-09-18T00:40:58.954Z,15.99
2023-09-18T00:42:58.920Z,15.99
2023-09-18T00:44:58.932Z,15.97
2023-09-18T00:46:58.929Z,15.94
2023-09-18T00:48:59.418Z,15.94
2023-09-18T00:50:59.021Z,15.93
2023-09-18T00:54:14.983Z,15.92
2023-09-18T00:56:14.952Z,15.91
2023-09-18T00:58:14.912Z,15.9
2023-09-18T01:00:14.961Z,15.91
2023-09-18T01:02:15.207Z,15.89
2023-09-18T01:04:14.988Z,15.87
2023-09-18T01:06:14.973Z,15.89
2023-09-18T01:09:00.714Z,15.85
2023-09-18T01:11:00.735Z,15.84
2023-09-18T01:13:00.606Z,15.86
2023-09-18T01:15:01.117Z,15.82
2023-09-18T01:17:00.737Z,15.8
2023-09-18T01:19:00.596Z,15.79
2023-09-18T01:21:00.895Z,15.72
2023-09-18T01:23:00.646Z,15.73
2023-09-18T01:24:32.848Z,15.75
2023-09-18T01:26:31.734Z,15.77
2023-09-18T01:28:31.327Z,15.82
2023-09-18T01:30:31.323Z,15.83
2023-09-18T01:32:31.825Z,15.81
2023-09-18T01:34:31.295Z,15.74
2023-09-18T01:36:31.286Z,15.73
2023-09-18T01:39:18.668Z,15.66
2023-09-18T01:41:18.752Z,15.68
2023-09-18T01:43:18.649Z,15.63
2023-09-18T01:45:18.846Z,15.66
2023-09-18T01:47:18.668Z,15.63
2023-09-18T01:49:18.678Z,15.58
2023-09-18T01:51:18.939Z,15.61
2023-09-18T01:53:18.655Z,15.61
2023-09-18T01:54:58.859Z,15.59
2023-09-18T01:56:58.902Z,15.58
2023-09-18T01:58:58.995Z,15.54
2023-09-18T02:00:58.999Z,15.59
2023-09-18T02:03:06.439Z,15.62
2023-09-18T02:05:07.054Z,15.66
2023-09-18T02:06:59.239Z,15.7
2023-09-18T02:10:23.050Z,15.75
2023-09-18T02:12:22.667Z,15.73
2023-09-18T02:14:22.696Z,15.75
2023-09-18T02:16:22.752Z,15.81
2023-09-18T02:18:22.738Z,15.85
2023-09-18T02:20:22.749Z,15.86
2023-09-18T02:22:22.679Z,15.82
2023-09-18T02:25:14.981Z,15.74
2023-09-18T02:27:18.109Z,15.72
2023-09-18T02:29:15.181Z,15.71
2023-09-18T02:31:15.276Z,15.71
2023-09-18T02:33:15.365Z,15.69
2023-09-18T02:35:15.050Z,15.58
2023-09-18T02:37:15.020Z,15.62
2023-09-18T02:40:17.458Z,15.76
2023-09-18T02:42:17.459Z,15.78
2023-09-18T02:44:17.480Z,15.79
2023-09-18T02:46:17.791Z,15.83
2023-09-18T02:48:17.468Z,15.76
2023-09-18T02:50:17.422Z,15.78
2023-09-18T02:52:17.466Z,15.74
2023-09-18T02:55:17.332Z,15.75
2023-09-18T02:57:17.342Z,15.71
2023-09-18T02:59:17.185Z,15.69
2023-09-18T03:01:17.243Z,15.69
2023-09-18T03:03:17.246Z,15.69
2023-09-18T03:05:17.168Z,15.71
2023-09-18T03:07:17.174Z,15.74
2023-09-18T03:09:17.376Z,15.71
2023-09-18T03:10:25.690Z,15.68
2023-09-18T03:12:25.652Z,15.65
2023-09-18T03:14:25.727Z,15.61
2023-09-18T03:16:25.737Z,15.58
2023-09-18T03:18:25.631Z,15.6
2023-09-18T03:20:25.761Z,15.64
2023-09-18T03:22:25.641Z,15.69
2023-09-18T03:24:25.794Z,15.66
2023-09-18T03:25:55.018Z,15.63
2023-09-18T03:27:54.030Z,15.63
2023-09-18T03:29:54.149Z,15.53
2023-09-18T03:31:53.997Z,15.57
2023-09-18T03:33:54.045Z,15.54
2023-09-18T03:35:54.001Z,15.5
2023-09-18T03:37:53.964Z,15.51
2023-09-18T03:41:30.338Z,15.51
2023-09-18T03:43:30.296Z,15.53
2023-09-18T03:45:30.387Z,15.49
2023-09-18T03:47:30.603Z,15.51
2023-09-18T03:49:30.353Z,15.45
2023-09-18T03:51:30.281Z,15.38
2023-09-18T03:53:30.363Z,15.38
2023-09-18T03:55:53.789Z,15.44
2023-09-18T03:57:53.151Z,15.44
2023-09-18T03:59:53.150Z,15.43
2023-09-18T04:01:53.311Z,15.46
2023-09-18T04:03:53.283Z,15.43
2023-09-18T04:05:53.588Z,15.39
2023-09-18T04:07:53.317Z,15.43
2023-09-18T04:09:53.196Z,15.45
2023-09-18T04:11:47.591Z,15.5
2023-09-18T04:13:47.757Z,15.49
2023-09-18T04:15:47.730Z,15.54
2023-09-18T04:17:47.933Z,15.55
2023-09-18T04:19:47.595Z,15.61
2023-09-18T04:21:47.625Z,15.67
2023-09-18T04:23:47.949Z,15.69
2023-09-18T04:26:51.550Z,15.76
2023-09-18T04:28:52.613Z,15.81
2023-09-18T04:30:51.549Z,15.91
2023-09-18T04:32:51.564Z,16.06
2023-09-18T04:34:51.582Z,16.2
2023-09-18T04:36:51.515Z,16.31
2023-09-18T04:38:51.709Z,16.41
2023-09-18T04:41:41.014Z,16.55
2023-09-18T04:43:40.621Z,16.64
2023-09-18T04:45:40.700Z,16.7
2023-09-18T04:47:40.835Z,16.81
2023-09-18T04:49:40.489Z,16.79
2023-09-18T04:51:40.468Z,16.84
2023-09-18T04:53:41.087Z,16.97
2023-09-18T04:56:45.993Z,16.98
2023-09-18T04:58:46.056Z,17.22
2023-09-18T05:00:46.060Z,17.93
2023-09-18T05:02:46.385Z,18.9
2023-09-18T05:04:46.184Z,18.78
2023-09-18T05:06:46.218Z,18.51
2023-09-18T05:08:46.066Z,18.17
2023-09-18T05:11:50.978Z,18.8
2023-09-18T05:13:50.542Z,18.39
2023-09-18T05:15:50.557Z,19.5
2023-09-18T05:17:50.602Z,20.94
2023-09-18T05:19:50.507Z,21.57
2023-09-18T05:21:50.625Z,22.41
2023-09-18T05:23:50.597Z,23.1
2023-09-18T05:27:27.865Z,22.71
2023-09-18T05:29:27.843Z,20.85
2023-09-18T05:31:27.650Z,20.45
2023-09-18T05:33:28.640Z,20.24
2023-09-18T05:35:27.649Z,19.94
2023-09-18T05:37:27.610Z,19.87
2023-09-18T05:39:27.816Z,19.83
2023-09-18T05:42:59.385Z,19.31
2023-09-18T05:44:59.329Z,19.13
2023-09-18T05:46:59.273Z,19.17
2023-09-18T05:48:59.267Z,19.43
2023-09-18T05:50:59.567Z,19.6
2023-09-18T05:52:59.306Z,19.84
2023-09-18T05:54:59.307Z,19.8
2023-09-18T05:57:42.108Z,19.62
2023-09-18T05:59:41.855Z,19.83
2023-09-18T06:01:41.869Z,20.21
2023-09-18T06:03:41.861Z,20.71
2023-09-18T06:05:41.810Z,20.83
2023-09-18T06:07:41.851Z,20.47
2023-09-18T06:09:41.913Z,20.15
2023-09-18T06:12:54.958Z,19.94
2023-09-18T06:14:55.096Z,19.92
2023-09-18T06:16:55.013Z,19.87
2023-09-18T06:18:55.156Z,19.86
2023-09-18T06:20:54.924Z,19.98
2023-09-18T06:22:54.987Z,20.05
2023-09-18T06:24:54.921Z,20.05
2023-09-18T06:28:14.154Z,20.38
2023-09-18T06:30:13.766Z,20.55
2023-09-18T06:32:13.782Z,20.64
2023-09-18T06:34:14.055Z,20.78
2023-09-18T06:36:13.765Z,20.2
2023-09-18T06:38:13.783Z,20.48
2023-09-18T06:40:13.974Z,20.34
2023-09-18T06:42:59.457Z,20.59
2023-09-18T06:44:59.516Z,20.53
2023-09-18T06:46:59.474Z,20.53
2023-09-18T06:48:59.648Z,20.34
2023-09-18T06:50:59.632Z,20.26
2023-09-18T06:52:59.448Z,20.47
2023-09-18T06:54:59.581Z,20.75
2023-09-18T06:58:25.917Z,21.32
2023-09-18T07:00:25.695Z,21.74
2023-09-18T07:02:25.712Z,21.51
2023-09-18T07:04:25.834Z,21.17
2023-09-18T07:06:25.741Z,21.19
2023-09-18T07:08:26.104Z,21.53
2023-09-18T07:10:25.810Z,21.82
2023-09-18T07:13:24.935Z,21.83
2023-09-18T07:15:24.939Z,21.77
2023-09-18T07:17:25.024Z,21.6
2023-09-18T07:19:25.460Z,21.8
2023-09-18T07:21:24.951Z,21.51
2023-09-18T07:23:24.991Z,21.74
2023-09-18T07:25:24.964Z,21.8
2023-09-18T07:29:02.550Z,21.36
2023-09-18T07:31:00.987Z,21.65
2023-09-18T07:33:01.000Z,21.81
2023-09-18T07:35:00.992Z,21.14
2023-09-18T07:37:01.029Z,21.25
2023-09-18T07:39:01.338Z,21.18
2023-09-18T07:41:01.062Z,20.97
2023-09-18T10:30:32.585Z,23.23
2023-09-18T10:32:32.656Z,23.9
2023-09-18T10:34:33.147Z,23.84
2023-09-18T10:36:34.836Z,24.43
2023-09-18T10:38:32.582Z,24.11
2023-09-18T10:40:32.731Z,24.29
2023-09-18T10:42:32.767Z,24.94
2023-09-18T10:44:33.456Z,25.23
2023-09-18T10:46:33.524Z,25.3
2023-09-18T10:48:33.800Z,24.86
2023-09-18T10:50:33.522Z,24.39
2023-09-18T10:52:33.659Z,24.62
2023-09-18T10:54:33.418Z,25.18
2023-09-18T10:56:33.548Z,24.89
2023-09-18T10:59:34.615Z,25.04
2023-09-18T11:01:34.760Z,25.02
2023-09-18T11:03:34.926Z,25.36
2023-09-18T11:05:34.579Z,25.33
2023-09-18T11:07:34.591Z,24.88
2023-09-18T11:09:35.000Z,25.04
2023-09-18T11:11:34.589Z,25.12
2023-09-18T11:14:40.672Z,25.09
2023-09-18T11:16:40.646Z,24.79
2023-09-18T11:18:40.564Z,24.6
2023-09-18T11:20:40.467Z,25.01
2023-09-18T11:22:40.380Z,25.28
2023-09-18T11:24:40.307Z,25.61
2023-09-18T11:26:40.359Z,25.94
2023-09-18T11:30:04.967Z,25.9
2023-09-18T11:32:05.376Z,26.07
2023-09-18T11:34:04.983Z,26.25
2023-09-18T11:36:05.069Z,26.42
2023-09-18T11:38:05.028Z,26.46
2023-09-18T11:40:05.060Z,26.45
2023-09-18T11:42:05.413Z,26.61
2023-09-18T11:45:27.301Z,25.77
2023-09-18T11:47:27.375Z,25.68
2023-09-18T11:49:27.286Z,25.49
2023-09-18T11:51:27.290Z,25.96
2023-09-18T11:53:29.128Z,26.18
2023-09-18T11:55:27.321Z,26.13
2023-09-18T11:57:27.256Z,26.39
2023-09-18T12:00:26.830Z,26.16
2023-09-18T12:02:26.880Z,25.96
2023-09-18T12:04:26.718Z,26.41
2023-09-18T12:06:26.821Z,26.37
2023-09-18T12:08:26.712Z,26.51
2023-09-18T12:10:26.687Z,26.44
2023-09-18T12:12:26.736Z,26.48
2023-09-18T12:16:06.872Z,25.93
2023-09-18T12:18:06.919Z,25.67
2023-09-18T12:20:06.868Z,26.01
2023-09-18T12:22:06.831Z,26.21
2023-09-18T12:24:07.015Z,26.42
2023-09-18T12:26:07.113Z,26.53
2023-09-18T12:28:06.845Z,26.78
2023-09-18T12:30:50.417Z,26.52
2023-09-18T12:32:48.422Z,26.28
2023-09-18T12:34:48.964Z,26.07
2023-09-18T12:36:48.429Z,26.41
2023-09-18T12:38:48.416Z,26.56
2023-09-18T12:40:48.783Z,26.85
2023-09-18T12:42:48.600Z,27.02
2023-09-18T12:45:46.107Z,26.5
2023-09-18T12:47:46.273Z,26.55
2023-09-18T12:49:46.102Z,26.4
2023-09-18T12:51:47.172Z,26.4
2023-09-18T12:53:46.571Z,26.63
2023-09-18T12:55:46.086Z,27.07
2023-09-18T12:57:46.250Z,27.33
2023-09-18T13:01:14.846Z,27.17
2023-09-18T13:03:14.893Z,27.27
2023-09-18T13:05:15.105Z,27.25
2023-09-18T13:07:14.792Z,27.42
2023-09-18T13:09:14.986Z,26.98
2023-09-18T13:11:14.835Z,26.94
2023-09-18T13:13:14.784Z,27.25
2023-09-18T13:16:21.246Z,27.45
2023-09-18T13:18:21.304Z,26.92
2023-09-18T13:20:21.247Z,26.4
2023-09-18T13:22:21.341Z,26.19
2023-09-18T13:24:21.285Z,26.24
2023-09-18T13:26:21.245Z,25.95
2023-09-18T13:28:21.279Z,26.28
2023-09-18T13:32:00.645Z,26.29
2023-09-18T13:34:00.529Z,25.93
2023-09-18T13:36:00.312Z,25.27
2023-09-18T13:38:00.046Z,25.66
2023-09-18T13:40:00.431Z,25.94
2023-09-18T13:42:00.087Z,25.63
2023-09-18T13:44:00.135Z,26.08
2023-09-18T13:46:30.745Z,25.57
2023-09-18T13:48:30.743Z,25.19
2023-09-18T13:50:30.703Z,25.38
2023-09-18T13:52:30.792Z,25.47
2023-09-18T13:54:30.677Z,25.8
2023-09-18T13:56:31.025Z,25.85
2023-09-18T13:58:30.756Z,25.78
2023-09-18T14:02:17.581Z,26.15
2023-09-18T14:04:17.208Z,26.06
2023-09-18T14:06:17.259Z,25.79
2023-09-18T14:08:17.342Z,25.31
2023-09-18T14:10:17.252Z,25.29
2023-09-18T14:12:17.233Z,25.74
2023-09-18T14:14:17.578Z,25.25
2023-09-18T14:16:58.300Z,25.48
2023-09-18T14:18:57.297Z,25.61
2023-09-18T14:20:57.304Z,25.26
2023-09-18T14:22:57.169Z,25.51
2023-09-18T14:24:57.175Z,25.23
2023-09-18T14:26:57.150Z,25.42
2023-09-18T14:28:57.182Z,25.4
2023-09-18T14:31:50.751Z,25.43
2023-09-18T14:33:50.467Z,25.29
2023-09-18T14:35:50.405Z,25.03
2023-09-18T14:37:50.470Z,25.05
2023-09-18T14:39:50.419Z,25.15
2023-09-18T14:41:50.425Z,24.88
2023-09-18T14:43:50.669Z,24.92
2023-09-18T14:45:50.442Z,24.76
2023-09-18T14:46:52.404Z,24.69
2023-09-18T14:48:52.549Z,24.61
2023-09-18T14:50:52.451Z,24.56
2023-09-18T14:52:52.393Z,24.61
2023-09-18T14:54:52.734Z,24.65
2023-09-18T14:56:52.473Z,24.64
2023-09-18T14:58:52.355Z,24.68
2023-09-18T15:00:52.578Z,24.58
2023-09-18T15:02:17.621Z,24.53
2023-09-18T15:04:17.459Z,24.42
2023-09-18T15:06:17.481Z,24.22
2023-09-18T15:08:17.367Z,24.25
2023-09-18T15:10:17.393Z,24.26
2023-09-18T15:12:17.601Z,24.19
2023-09-18T15:14:17.367Z,24.12
2023-09-18T15:17:57.811Z,23.55
2023-09-18T15:19:57.608Z,23.86
2023-09-18T15:21:57.560Z,23.88
2023-09-18T15:23:57.844Z,23.78
2023-09-18T15:25:57.568Z,23.73
2023-09-18T15:27:57.652Z,23.43
2023-09-18T15:29:57.587Z,23.6
2023-09-18T15:32:59.911Z,23.48
2023-09-18T15:34:59.898Z,23.34
2023-09-18T15:36:59.724Z,23.35
2023-09-18T15:38:59.794Z,23.27
2023-09-18T15:41:00.011Z,23.16
2023-09-18T15:42:59.729Z,23.19
2023-09-18T15:44:59.741Z,23.15
2023-09-18T15:48:31.427Z,22.96
2023-09-18T15:50:37.960Z,22.81
2023-09-18T15:52:31.668Z,22.76
2023-09-18T15:54:31.333Z,22.79
2023-09-18T15:56:31.365Z,22.66
2023-09-18T15:58:31.688Z,22.56
2023-09-18T16:00:32.149Z,22.35
2023-09-18T16:03:04.494Z,22.42
2023-09-18T16:05:04.425Z,22.39
2023-09-18T16:07:04.410Z,22.3
2023-09-18T16:09:04.422Z,22.24
2023-09-18T16:11:04.418Z,22.24
2023-09-18T16:13:04.460Z,22.13
2023-09-18T16:15:04.402Z,22.03
2023-09-18T16:18:13.489Z,21.96
2023-09-18T16:20:13.340Z,21.86
2023-09-18T16:22:13.501Z,21.77
2023-09-18T16:24:13.700Z,21.63
2023-09-18T16:26:13.350Z,21.56
2023-09-18T16:28:13.361Z,21.45
2023-09-18T16:30:13.688Z,21.39
2023-09-18T16:33:12.097Z,21.21
2023-09-18T16:35:11.946Z,21.32
2023-09-18T16:37:11.974Z,21.21
2023-09-18T16:39:11.956Z,21.15
2023-09-18T16:41:11.979Z,21.02
2023-09-18T16:43:12.174Z,20.87
2023-09-18T16:45:11.959Z,20.75
2023-09-18T16:47:11.957Z,20.64
2023-09-18T16:48:46.906Z,20.65
2023-09-18T16:50:46.875Z,20.66
2023-09-18T16:52:46.780Z,20.6
2023-09-18T16:54:49.061Z,20.54
2023-09-18T16:56:46.959Z,20.31
2023-09-18T16:58:47.076Z,20.15
2023-09-18T17:00:46.851Z,20.04
2023-09-18T17:03:30.090Z,20.06
2023-09-18T17:05:30.068Z,20.13
2023-09-18T17:07:32.415Z,20.13
2023-09-18T17:09:30.031Z,20.13
2023-09-18T17:11:30.052Z,20.06
2023-09-18T17:13:30.001Z,20.01
2023-09-18T17:15:30.086Z,19.95
2023-09-18T17:17:30.236Z,19.75
2023-09-18T17:18:55.390Z,19.8
2023-09-18T17:20:55.266Z,19.59
2023-09-18T17:22:55.484Z,19.69
2023-09-18T17:24:55.607Z,19.64
2023-09-18T17:26:55.241Z,19.6
2023-09-18T17:28:55.297Z,19.6
2023-09-18T17:30:55.365Z,19.66
2023-09-18T17:34:08.573Z,19.72
2023-09-18T17:36:08.464Z,19.76
2023-09-18T17:38:08.493Z,19.7
2023-09-18T17:40:08.468Z,19.65
2023-09-18T17:42:08.462Z,19.7
2023-09-18T17:44:08.556Z,19.64
2023-09-18T17:46:08.494Z,19.64
2023-09-18T17:49:10.287Z,19.69
2023-09-18T17:51:09.906Z,19.71
2023-09-18T17:53:09.953Z,19.68
2023-09-18T17:55:09.897Z,19.63
2023-09-18T17:57:09.893Z,19.54
2023-09-18T17:59:09.873Z,19.52
2023-09-18T18:01:09.925Z,19.54
2023-09-18T18:05:01.086Z,19.36
2023-09-18T18:07:01.075Z,19.34
2023-09-18T18:09:01.036Z,19.36
2023-09-18T18:11:00.930Z,19.34
2023-09-18T18:13:01.258Z,19.37
2023-09-18T18:15:00.978Z,19.32
2023-09-18T18:17:00.965Z,19.31
2023-09-18T18:19:23.601Z,19.26
2023-09-18T18:21:23.578Z,19.28
2023-09-18T18:23:24.127Z,19.27
2023-09-18T18:25:23.632Z,19.21
2023-09-18T18:27:23.953Z,19.19
2023-09-18T18:29:23.617Z,19.13
2023-09-18T18:31:23.640Z,18.97
2023-09-18T18:33:23.591Z,18.86
2023-09-18T18:34:38.642Z,18.87
2023-09-18T18:36:38.650Z,18.84
2023-09-18T18:38:38.675Z,18.81
2023-09-18T18:42:38.986Z,18.73
2023-09-18T18:44:38.814Z,18.48
2023-09-18T18:46:38.760Z,18.53
2023-09-18T18:50:05.503Z,18.73
2023-09-18T18:52:05.405Z,18.64
2023-09-18T18:54:05.422Z,18.6
2023-09-18T18:56:05.667Z,18.58
2023-09-18T18:58:05.314Z,18.5
2023-09-18T19:00:05.346Z,18.39
2023-09-18T19:02:05.671Z,18.4
2023-09-18T19:05:43.222Z,18.27
2023-09-18T19:07:43.478Z,18.23
2023-09-18T19:09:43.110Z,18.12
2023-09-18T19:11:43.245Z,18.02
2023-09-18T19:13:43.410Z,17.96
2023-09-18T19:15:43.115Z,17.85
2023-09-18T19:17:43.174Z,17.95
2023-09-18T19:20:27.610Z,17.99
2023-09-18T19:22:27.267Z,17.95
2023-09-18T19:24:27.278Z,17.92
2023-09-18T19:26:27.321Z,17.83
2023-09-18T19:28:27.261Z,17.8
2023-09-18T19:30:27.373Z,17.77
2023-09-18T19:32:27.593Z,17.75
2023-09-18T19:36:05.192Z,17.66
2023-09-18T19:38:05.003Z,17.54
2023-09-18T19:40:04.966Z,17.62
2023-09-18T19:42:05.228Z,17.56
2023-09-18T19:44:04.968Z,17.53
2023-09-18T19:46:05.152Z,17.48
2023-09-18T19:48:05.374Z,17.49
2023-09-18T19:50:47.442Z,17.56
2023-09-18T19:52:47.321Z,17.57
2023-09-18T19:54:47.320Z,17.61
2023-09-18T19:56:47.341Z,17.7
2023-09-18T19:58:47.393Z,17.7
2023-09-18T20:00:47.953Z,17.76
2023-09-18T20:02:47.460Z,17.76
2023-09-18T20:05:51.609Z,17.7
2023-09-18T20:07:51.126Z,17.61
2023-09-18T20:09:51.152Z,17.61
2023-09-18T20:11:51.319Z,17.58
2023-09-18T20:13:51.314Z,17.55
2023-09-18T20:15:51.164Z,17.35
2023-09-18T20:17:51.524Z,17.09
2023-09-18T20:21:02.438Z,17.36
2023-09-18T20:23:02.310Z,17.38
2023-09-18T20:25:02.316Z,17.38
2023-09-18T20:27:02.315Z,17.39
2023-09-18T20:29:02.500Z,17.37
2023-09-18T20:31:02.273Z,17.29
2023-09-18T20:33:02.259Z,17.18
2023-09-18T20:36:42.821Z,17.14
2023-09-18T20:38:43.463Z,17.16
2023-09-18T20:40:42.462Z,17.12
2023-09-18T20:42:42.543Z,17.07
2023-09-18T20:44:42.422Z,16.89
2023-09-18T20:46:42.405Z,16.81
2023-09-18T20:48:42.804Z,16.91
2023-09-18T20:51:31.576Z,17.02
2023-09-18T20:53:29.209Z,16.95
2023-09-18T20:55:29.272Z,16.87
2023-09-18T20:57:29.195Z,16.94
2023-09-18T20:59:29.873Z,16.95
2023-09-18T21:01:29.468Z,16.96
2023-09-18T21:03:29.383Z,16.86
2023-09-18T21:07:00.216Z,16.89
2023-09-18T21:09:00.223Z,16.82
2023-09-18T21:11:00.174Z,16.84
2023-09-18T21:13:00.239Z,16.8
2023-09-18T21:15:00.236Z,16.76
2023-09-18T21:17:00.380Z,16.77
2023-09-18T21:19:00.364Z,16.63
2023-09-18T21:21:39.192Z,16.57
2023-09-18T21:23:39.180Z,16.64
2023-09-18T21:25:40.802Z,16.63
2023-09-18T21:27:39.187Z,16.59
2023-09-18T21:29:39.196Z,16.55
2023-09-18T21:31:39.418Z,16.53
2023-09-18T21:33:39.272Z,16.47
2023-09-18T21:37:10.871Z,16.43
2023-09-18T21:39:10.864Z,16.43
2023-09-18T21:41:10.804Z,16.43
2023-09-18T21:43:11.032Z,16.36
2023-09-18T21:45:10.790Z,16.35
2023-09-18T21:47:10.790Z,16.36
2023-09-18T21:49:10.852Z,16.3
2023-09-18T21:52:31.355Z,16.25
2023-09-18T21:54:31.621Z,16.19
2023-09-18T21:56:31.470Z,16.19
2023-09-18T21:58:31.531Z,16.2
2023-09-18T22:00:31.360Z,16.19
2023-09-18T22:02:31.386Z,16.04
2023-09-18T22:04:31.481Z,16.04
2023-09-18T22:07:27.673Z,16.11
2023-09-18T22:09:27.692Z,15.96
2023-09-18T22:11:27.707Z,15.87
2023-09-18T22:13:27.702Z,15.86
2023-09-18T22:15:27.747Z,15.94
2023-09-18T22:17:28.006Z,15.92
2023-09-18T22:19:27.706Z,15.9
2023-09-18T22:22:35.628Z,15.87
2023-09-18T22:24:35.503Z,15.92
2023-09-18T22:26:35.418Z,15.96
2023-09-18T22:28:35.405Z,15.97
2023-09-18T22:30:35.529Z,16
2023-09-18T22:32:35.405Z,16.01
2023-09-18T22:34:35.420Z,15.94
2023-09-18T22:37:40.878Z,15.86
2023-09-18T22:39:40.715Z,15.8
2023-09-18T22:41:40.587Z,15.79
2023-09-18T22:43:40.678Z,15.74
2023-09-18T22:45:40.550Z,15.76
2023-09-18T22:47:40.618Z,15.77
2023-09-18T22:49:40.548Z,15.78
2023-09-18T22:52:21.073Z,15.71
2023-09-18T22:54:20.863Z,15.68
2023-09-18T22:56:20.865Z,15.68
2023-09-18T22:58:28.864Z,15.65
2023-09-18T23:00:20.888Z,15.69
2023-09-18T23:02:21.155Z,15.68
2023-09-18T23:04:20.880Z,15.63
2023-09-18T23:06:20.842Z,15.61
2023-09-18T23:07:34.462Z,15.6
2023-09-18T23:09:34.498Z,15.58
2023-09-18T23:11:34.411Z,15.6
2023-09-18T23:13:34.309Z,15.51
2023-09-18T23:15:34.381Z,15.53
2023-09-18T23:17:34.353Z,15.51
2023-09-18T23:19:34.299Z,15.47
2023-09-18T23:21:34.457Z,15.46
2023-09-18T23:23:02.353Z,15.43
2023-09-18T23:25:02.276Z,15.39
2023-09-18T23:27:02.470Z,15.36
2023-09-18T23:29:02.134Z,15.32
2023-09-18T23:31:02.178Z,15.32
2023-09-18T23:33:02.755Z,15.3
2023-09-18T23:35:02.118Z,15.23
2023-09-18T23:38:37.711Z,15.25
2023-09-18T23:40:37.611Z,15.2
2023-09-18T23:42:37.532Z,15.17
2023-09-18T23:44:37.670Z,15.13
2023-09-18T23:46:37.604Z,15.1
2023-09-18T23:48:37.528Z,15.06
2023-09-18T23:50:37.573Z,14.95
2023-09-18T23:53:43.016Z,15.01
2023-09-18T23:55:43.352Z,14.9
2023-09-18T23:57:43.050Z,14.91
2023-09-18T23:59:43.007Z,14.87
